sensor_id;sensor_type;location;lat;lon;timestamp;temperature;humidity
62904;DHT22;49000;50.698;13.322;2022-12-11T00:02:11;-1.60;99.90
62904;DHT22;49000;50.698;13.322;2022-12-11T00:04:36;-2.20;99.90
62904;DHT22;49000;50.698;13.322;2022-12-11T00:07:02;-2.10;99.90
62904;DHT22;49000;50.698;13.322;2022-12-11T00:09:27;-1.40;99.90
62904;DHT22;49000;50.698;13.322;2022-12-11T00:11:53;-1.60;99.90
62904;DHT22;49000;50.698;13.322;2022-12-11T00:14:18;-1.40;99.90
62904;DHT22;49000;50.698;13.322;2022-12-11T00:16:46;-1.60;99.90
62904;DHT22;49000;50.698;13.322;2022-12-11T00:19:12;-1.50;99.90
62904;DHT22;49000;50.698;13.322;2022-12-11T00:21:38;-2.00;99.90
62904;DHT22;49000;50.698;13.322;2022-12-11T00:24:04;-1.50;99.90
62904;DHT22;49000;50.698;13.322;2022-12-11T00:26:29;-1.60;99.90
62904;DHT22;49000;50.698;13.322;2022-12-11T00:28:55;-1.40;99.90
62904;DHT22;49000;50.698;13.322;2022-12-11T00:31:22;-1.70;99.90
62904;DHT22;49000;50.698;13.322;2022-12-11T00:33:48;-1.60;99.90
62904;DHT22;49000;50.698;13.322;2022-12-11T00:36:19;-2.10;99.90
62904;DHT22;49000;50.698;13.322;2022-12-11T00:38:45;-1.50;99.90
62904;DHT22;49000;50.698;13.322;2022-12-11T00:41:11;-1.70;99.90
62904;DHT22;49000;50.698;13.322;2022-12-11T00:43:36;-1.60;99.90
62904;DHT22;49000;50.698;13.322;2022-12-11T00:46:02;-1.60;99.90
62904;DHT22;49000;50.698;13.322;2022-12-11T00:48:28;-1.60;99.90
62904;DHT22;49000;50.698;13.322;2022-12-11T00:50:54;-1.60;99.90
62904;DHT22;49000;50.698;13.322;2022-12-11T00:53:19;-2.00;99.90
62904;DHT22;49000;50.698;13.322;2022-12-11T00:55:45;-1.60;99.90
62904;DHT22;49000;50.698;13.322;2022-12-11T00:58:11;-1.60;99.90
62904;DHT22;49000;50.698;13.322;2022-12-11T01:00:37;-1.60;99.90
62904;DHT22;49000;50.698;13.322;2022-12-11T01:03:03;-2.00;99.90
62904;DHT22;49000;50.698;13.322;2022-12-11T01:05:29;-1.50;99.90
62904;DHT22;49000;50.698;13.322;2022-12-11T01:07:54;-1.40;99.90
62904;DHT22;49000;50.698;13.322;2022-12-11T01:10:20;-1.60;99.90
62904;DHT22;49000;50.698;13.322;2022-12-11T01:15:19;-1.80;99.90
62904;DHT22;49000;50.698;13.322;2022-12-11T01:17:45;-1.90;99.90
62904;DHT22;49000;50.698;13.322;2022-12-11T01:20:11;-1.80;99.90
62904;DHT22;49000;50.698;13.322;2022-12-11T01:22:37;-1.70;99.90
62904;DHT22;49000;50.698;13.322;2022-12-11T01:25:02;-1.80;99.90
62904;DHT22;49000;50.698;13.322;2022-12-11T01:27:28;-1.80;99.90
62904;DHT22;49000;50.698;13.322;2022-12-11T01:29:53;-2.50;99.90
62904;DHT22;49000;50.698;13.322;2022-12-11T01:32:19;-2.00;99.90
62904;DHT22;49000;50.698;13.322;2022-12-11T01:34:45;-2.30;99.90
62904;DHT22;49000;50.698;13.322;2022-12-11T01:37:10;-2.70;99.90
62904;DHT22;49000;50.698;13.322;2022-12-11T01:39:35;-2.10;99.90
62904;DHT22;49000;50.698;13.322;2022-12-11T01:42:02;-2.00;99.90
62904;DHT22;49000;50.698;13.322;2022-12-11T01:46:53;-2.10;99.90
62904;DHT22;49000;50.698;13.322;2022-12-11T01:49:22;-2.00;99.90
62904;DHT22;49000;50.698;13.322;2022-12-11T01:52:02;-1.80;99.90
62904;DHT22;49000;50.698;13.322;2022-12-11T01:54:30;-2.10;99.90
62904;DHT22;49000;50.698;13.322;2022-12-11T01:56:59;-2.50;99.90
62904;DHT22;49000;50.698;13.322;2022-12-11T01:59:28;-2.00;99.90
62904;DHT22;49000;50.698;13.322;2022-12-11T02:02:19;-2.10;99.90
62904;DHT22;49000;50.698;13.322;2022-12-11T02:04:46;-2.20;99.90
62904;DHT22;49000;50.698;13.322;2022-12-11T02:07:13;-2.00;99.90
62904;DHT22;49000;50.698;13.322;2022-12-11T02:09:40;-2.30;99.90
62904;DHT22;49000;50.698;13.322;2022-12-11T02:17:42;-2.10;99.90
62904;DHT22;49000;50.698;13.322;2022-12-11T02:26:20;-2.00;99.90
62904;DHT22;49000;50.698;13.322;2022-12-11T02:28:56;-1.90;99.90
62904;DHT22;49000;50.698;13.322;2022-12-11T02:31:37;-2.00;99.90
62904;DHT22;49000;50.698;13.322;2022-12-11T02:34:36;-1.80;99.90
62904;DHT22;49000;50.698;13.322;2022-12-11T02:37:11;-2.00;99.90
62904;DHT22;49000;50.698;13.322;2022-12-11T02:39:41;-2.10;99.90
62904;DHT22;49000;50.698;13.322;2022-12-11T02:42:09;-2.00;99.90
62904;DHT22;49000;50.698;13.322;2022-12-11T02:44:36;-2.10;99.90
62904;DHT22;49000;50.698;13.322;2022-12-11T02:47:03;-2.20;99.90
62904;DHT22;49000;50.698;13.322;2022-12-11T02:49:33;-2.10;99.90
62904;DHT22;49000;50.698;13.322;2022-12-11T02:52:00;-2.40;99.90
62904;DHT22;49000;50.698;13.322;2022-12-11T02:54:30;-1.80;99.90
62904;DHT22;49000;50.698;13.322;2022-12-11T02:57:15;-1.90;99.90
62904;DHT22;49000;50.698;13.322;2022-12-11T02:59:43;-2.10;99.90
62904;DHT22;49000;50.698;13.322;2022-12-11T03:02:10;-1.90;99.90
62904;DHT22;49000;50.698;13.322;2022-12-11T03:04:36;-2.00;99.90
62904;DHT22;49000;50.698;13.322;2022-12-11T03:07:07;-2.00;99.90
62904;DHT22;49000;50.698;13.322;2022-12-11T03:09:39;-2.00;99.90
62904;DHT22;49000;50.698;13.322;2022-12-11T03:12:07;-2.10;99.90
62904;DHT22;49000;50.698;13.322;2022-12-11T03:14:33;-2.00;99.90
62904;DHT22;49000;50.698;13.322;2022-12-11T03:17:07;-2.40;99.90
62904;DHT22;49000;50.698;13.322;2022-12-11T03:19:40;-2.30;99.90
62904;DHT22;49000;50.698;13.322;2022-12-11T03:22:18;-2.00;99.90
62904;DHT22;49000;50.698;13.322;2022-12-11T03:27:20;-2.30;99.90
62904;DHT22;49000;50.698;13.322;2022-12-11T03:29:58;-2.20;99.90
62904;DHT22;49000;50.698;13.322;2022-12-11T03:32:28;-2.30;99.90
62904;DHT22;49000;50.698;13.322;2022-12-11T03:35:20;-2.40;99.90
62904;DHT22;49000;50.698;13.322;2022-12-11T03:37:48;-2.50;99.90
62904;DHT22;49000;50.698;13.322;2022-12-11T03:40:18;-2.30;99.90
62904;DHT22;49000;50.698;13.322;2022-12-11T03:42:46;-3.00;99.90
62904;DHT22;49000;50.698;13.322;2022-12-11T03:45:15;-2.40;99.90
62904;DHT22;49000;50.698;13.322;2022-12-11T03:47:42;-2.20;99.90
62904;DHT22;49000;50.698;13.322;2022-12-11T03:50:10;-2.40;99.90
62904;DHT22;49000;50.698;13.322;2022-12-11T03:52:39;-2.30;99.90
62904;DHT22;49000;50.698;13.322;2022-12-11T03:55:06;-2.40;99.90
62904;DHT22;49000;50.698;13.322;2022-12-11T03:57:35;-2.30;99.90
62904;DHT22;49000;50.698;13.322;2022-12-11T04:00:11;-2.20;99.90
62904;DHT22;49000;50.698;13.322;2022-12-11T04:02:38;-2.50;99.90
62904;DHT22;49000;50.698;13.322;2022-12-11T04:05:04;-2.30;99.90
62904;DHT22;49000;50.698;13.322;2022-12-11T04:07:30;-2.40;99.90
62904;DHT22;49000;50.698;13.322;2022-12-11T04:09:55;-2.60;99.90
62904;DHT22;49000;50.698;13.322;2022-12-11T04:12:21;-2.60;99.90
62904;DHT22;49000;50.698;13.322;2022-12-11T04:14:47;-2.60;99.90
62904;DHT22;49000;50.698;13.322;2022-12-11T04:17:29;-2.70;99.90
62904;DHT22;49000;50.698;13.322;2022-12-11T04:20:14;-2.80;99.90
62904;DHT22;49000;50.698;13.322;2022-12-11T04:22:59;-2.80;99.90
62904;DHT22;49000;50.698;13.322;2022-12-11T04:25:43;-2.90;99.90
62904;DHT22;49000;50.698;13.322;2022-12-11T04:28:08;-2.70;99.90
62904;DHT22;49000;50.698;13.322;2022-12-11T04:30:34;-2.90;99.90
62904;DHT22;49000;50.698;13.322;2022-12-11T04:33:00;-2.90;99.90
62904;DHT22;49000;50.698;13.322;2022-12-11T04:35:26;-3.30;99.90
62904;DHT22;49000;50.698;13.322;2022-12-11T04:37:51;-2.80;99.90
62904;DHT22;49000;50.698;13.322;2022-12-11T04:40:18;-2.90;99.90
62904;DHT22;49000;50.698;13.322;2022-12-11T04:42:44;-2.80;99.90
62904;DHT22;49000;50.698;13.322;2022-12-11T04:45:10;-3.30;99.90
62904;DHT22;49000;50.698;13.322;2022-12-11T04:47:37;-2.80;99.90
62904;DHT22;49000;50.698;13.322;2022-12-11T04:50:04;-2.90;99.90
62904;DHT22;49000;50.698;13.322;2022-12-11T04:52:30;-2.80;99.90
62904;DHT22;49000;50.698;13.322;2022-12-11T04:54:56;-2.70;99.90
62904;DHT22;49000;50.698;13.322;2022-12-11T04:57:22;-2.50;99.90
62904;DHT22;49000;50.698;13.322;2022-12-11T04:59:47;-2.70;99.90
62904;DHT22;49000;50.698;13.322;2022-12-11T05:02:14;-2.80;99.90
62904;DHT22;49000;50.698;13.322;2022-12-11T05:04:40;-2.70;99.90
62904;DHT22;49000;50.698;13.322;2022-12-11T05:07:05;-2.70;99.90
62904;DHT22;49000;50.698;13.322;2022-12-11T05:09:31;-2.80;99.90
62904;DHT22;49000;50.698;13.322;2022-12-11T05:11:56;-2.70;99.90
62904;DHT22;49000;50.698;13.322;2022-12-11T05:14:22;-3.00;99.90
62904;DHT22;49000;50.698;13.322;2022-12-11T05:16:47;-2.80;99.90
62904;DHT22;49000;50.698;13.322;2022-12-11T05:19:13;-3.30;99.90
62904;DHT22;49000;50.698;13.322;2022-12-11T05:21:38;-2.70;99.90
62904;DHT22;49000;50.698;13.322;2022-12-11T05:24:04;-2.70;99.90
62904;DHT22;49000;50.698;13.322;2022-12-11T05:26:30;-2.60;99.90
62904;DHT22;49000;50.698;13.322;2022-12-11T05:28:55;-2.90;99.90
62904;DHT22;49000;50.698;13.322;2022-12-11T05:31:24;-2.90;99.90
62904;DHT22;49000;50.698;13.322;2022-12-11T05:33:50;-2.90;99.90
62904;DHT22;49000;50.698;13.322;2022-12-11T05:36:27;-3.00;99.90
62904;DHT22;49000;50.698;13.322;2022-12-11T05:38:53;-2.80;99.90
62904;DHT22;49000;50.698;13.322;2022-12-11T05:41:21;-3.10;99.90
62904;DHT22;49000;50.698;13.322;2022-12-11T05:43:47;-2.90;99.90
62904;DHT22;49000;50.698;13.322;2022-12-11T05:46:21;-3.00;99.90
62904;DHT22;49000;50.698;13.322;2022-12-11T05:48:50;-2.80;99.90
62904;DHT22;49000;50.698;13.322;2022-12-11T05:51:17;-2.90;99.90
62904;DHT22;49000;50.698;13.322;2022-12-11T05:53:44;-3.30;99.90
62904;DHT22;49000;50.698;13.322;2022-12-11T05:56:13;-2.70;99.90
62904;DHT22;49000;50.698;13.322;2022-12-11T05:58:39;-2.70;99.90
62904;DHT22;49000;50.698;13.322;2022-12-11T06:01:11;-2.70;99.90
62904;DHT22;49000;50.698;13.322;2022-12-11T06:03:37;-2.70;99.90
62904;DHT22;49000;50.698;13.322;2022-12-11T06:06:04;-2.90;99.90
62904;DHT22;49000;50.698;13.322;2022-12-11T06:08:30;-2.70;99.90
62904;DHT22;49000;50.698;13.322;2022-12-11T06:10:56;-2.90;99.90
62904;DHT22;49000;50.698;13.322;2022-12-11T06:13:21;-3.00;99.90
62904;DHT22;49000;50.698;13.322;2022-12-11T06:15:47;-2.80;99.90
62904;DHT22;49000;50.698;13.322;2022-12-11T06:18:13;-2.80;99.90
62904;DHT22;49000;50.698;13.322;2022-12-11T06:20:38;-2.90;99.90
62904;DHT22;49000;50.698;13.322;2022-12-11T06:23:04;-2.90;99.90
62904;DHT22;49000;50.698;13.322;2022-12-11T06:25:30;-3.10;99.90
62904;DHT22;49000;50.698;13.322;2022-12-11T06:27:55;-2.90;99.90
62904;DHT22;49000;50.698;13.322;2022-12-11T06:30:21;-3.00;99.90
62904;DHT22;49000;50.698;13.322;2022-12-11T06:32:47;-2.90;99.90
62904;DHT22;49000;50.698;13.322;2022-12-11T06:35:12;-3.30;99.90
62904;DHT22;49000;50.698;13.322;2022-12-11T06:37:38;-2.80;99.90
62904;DHT22;49000;50.698;13.322;2022-12-11T06:40:05;-3.10;99.90
62904;DHT22;49000;50.698;13.322;2022-12-11T06:42:31;-3.40;99.90
62904;DHT22;49000;50.698;13.322;2022-12-11T06:44:57;-3.30;99.90
62904;DHT22;49000;50.698;13.322;2022-12-11T06:47:28;-3.60;99.90
62904;DHT22;49000;50.698;13.322;2022-12-11T06:49:54;-3.50;99.90
62904;DHT22;49000;50.698;13.322;2022-12-11T06:52:20;-3.10;99.90
62904;DHT22;49000;50.698;13.322;2022-12-11T06:54:46;-3.30;99.90
62904;DHT22;49000;50.698;13.322;2022-12-11T06:57:12;-3.10;99.90
62904;DHT22;49000;50.698;13.322;2022-12-11T06:59:37;-3.10;99.90
62904;DHT22;49000;50.698;13.322;2022-12-11T07:02:03;-3.30;99.90
62904;DHT22;49000;50.698;13.322;2022-12-11T07:04:29;-3.50;99.90
62904;DHT22;49000;50.698;13.322;2022-12-11T07:06:55;-3.30;99.90
62904;DHT22;49000;50.698;13.322;2022-12-11T07:09:22;-3.30;99.90
62904;DHT22;49000;50.698;13.322;2022-12-11T07:11:51;-3.50;99.90
62904;DHT22;49000;50.698;13.322;2022-12-11T07:14:17;-3.30;99.90
62904;DHT22;49000;50.698;13.322;2022-12-11T07:16:43;-3.90;99.90
62904;DHT22;49000;50.698;13.322;2022-12-11T07:19:08;-3.30;99.90
62904;DHT22;49000;50.698;13.322;2022-12-11T07:21:34;-3.40;99.90
62904;DHT22;49000;50.698;13.322;2022-12-11T07:23:59;-3.30;99.90
62904;DHT22;49000;50.698;13.322;2022-12-11T07:26:25;-3.20;99.90
62904;DHT22;49000;50.698;13.322;2022-12-11T07:28:51;-3.50;99.90
62904;DHT22;49000;50.698;13.322;2022-12-11T07:31:20;-3.40;99.90
62904;DHT22;49000;50.698;13.322;2022-12-11T07:33:46;-3.30;99.90
62904;DHT22;49000;50.698;13.322;2022-12-11T07:36:13;-3.40;99.90
62904;DHT22;49000;50.698;13.322;2022-12-11T07:38:39;-3.50;99.90
62904;DHT22;49000;50.698;13.322;2022-12-11T07:41:07;-3.40;99.90
62904;DHT22;49000;50.698;13.322;2022-12-11T07:43:34;-4.30;99.90
62904;DHT22;49000;50.698;13.322;2022-12-11T07:46:05;-3.70;99.90
62904;DHT22;49000;50.698;13.322;2022-12-11T07:48:34;-3.60;99.90
62904;DHT22;49000;50.698;13.322;2022-12-11T07:51:09;-3.30;99.90
62904;DHT22;49000;50.698;13.322;2022-12-11T07:53:35;-3.50;99.90
62904;DHT22;49000;50.698;13.322;2022-12-11T07:56:01;-3.00;99.90
62904;DHT22;49000;50.698;13.322;2022-12-11T07:58:27;-3.20;99.90
62904;DHT22;49000;50.698;13.322;2022-12-11T08:00:52;-3.10;99.90
62904;DHT22;49000;50.698;13.322;2022-12-11T08:03:18;-3.50;99.90
62904;DHT22;49000;50.698;13.322;2022-12-11T08:05:48;-3.80;99.90
62904;DHT22;49000;50.698;13.322;2022-12-11T08:08:14;-3.60;99.90
62904;DHT22;49000;50.698;13.322;2022-12-11T08:10:40;-3.10;99.90
62904;DHT22;49000;50.698;13.322;2022-12-11T08:13:05;-3.70;99.90
62904;DHT22;49000;50.698;13.322;2022-12-11T08:15:31;-3.30;99.90
62904;DHT22;49000;50.698;13.322;2022-12-11T08:17:56;-3.10;99.90
62904;DHT22;49000;50.698;13.322;2022-12-11T08:20:22;-2.90;99.90
62904;DHT22;49000;50.698;13.322;2022-12-11T08:22:47;-2.70;99.90
62904;DHT22;49000;50.698;13.322;2022-12-11T08:25:13;-2.80;99.90
62904;DHT22;49000;50.698;13.322;2022-12-11T08:27:38;-2.70;99.90
62904;DHT22;49000;50.698;13.322;2022-12-11T08:30:04;-2.50;99.90
62904;DHT22;49000;50.698;13.322;2022-12-11T08:32:30;-2.60;99.90
62904;DHT22;49000;50.698;13.322;2022-12-11T08:34:55;-2.50;99.90
62904;DHT22;49000;50.698;13.322;2022-12-11T08:37:21;-2.50;99.90
62904;DHT22;49000;50.698;13.322;2022-12-11T08:39:47;-2.40;99.90
62904;DHT22;49000;50.698;13.322;2022-12-11T08:42:12;-2.90;99.90
62904;DHT22;49000;50.698;13.322;2022-12-11T08:44:38;-2.40;99.90
62904;DHT22;49000;50.698;13.322;2022-12-11T08:47:03;-2.40;99.90
62904;DHT22;49000;50.698;13.322;2022-12-11T08:49:29;-2.60;99.90
62904;DHT22;49000;50.698;13.322;2022-12-11T08:51:54;-2.80;99.90
62904;DHT22;49000;50.698;13.322;2022-12-11T08:54:20;-2.80;99.90
62904;DHT22;49000;50.698;13.322;2022-12-11T08:56:45;-2.60;99.90
62904;DHT22;49000;50.698;13.322;2022-12-11T08:59:11;-2.30;99.90
62904;DHT22;49000;50.698;13.322;2022-12-11T09:01:36;-2.90;99.90
62904;DHT22;49000;50.698;13.322;2022-12-11T09:04:02;-2.30;99.90
62904;DHT22;49000;50.698;13.322;2022-12-11T09:06:29;-2.50;99.90
62904;DHT22;49000;50.698;13.322;2022-12-11T09:08:58;-2.70;99.90
62904;DHT22;49000;50.698;13.322;2022-12-11T09:11:27;-2.70;99.90
62904;DHT22;49000;50.698;13.322;2022-12-11T09:13:53;-2.50;99.90
62904;DHT22;49000;50.698;13.322;2022-12-11T09:16:21;-2.40;99.90
62904;DHT22;49000;50.698;13.322;2022-12-11T09:18:48;-2.50;99.90
62904;DHT22;49000;50.698;13.322;2022-12-11T09:21:16;-2.60;99.90
62904;DHT22;49000;50.698;13.322;2022-12-11T09:23:43;-2.50;99.90
62904;DHT22;49000;50.698;13.322;2022-12-11T09:26:12;-2.60;99.90
62904;DHT22;49000;50.698;13.322;2022-12-11T09:28:38;-2.50;99.90
62904;DHT22;49000;50.698;13.322;2022-12-11T09:31:14;-2.40;99.90
62904;DHT22;49000;50.698;13.322;2022-12-11T09:33:41;-2.10;99.90
62904;DHT22;49000;50.698;13.322;2022-12-11T09:36:08;-2.20;99.90
62904;DHT22;49000;50.698;13.322;2022-12-11T09:38:34;-2.30;99.90
62904;DHT22;49000;50.698;13.322;2022-12-11T09:41:01;-2.40;99.90
62904;DHT22;49000;50.698;13.322;2022-12-11T09:43:48;-2.00;99.90
62904;DHT22;49000;50.698;13.322;2022-12-11T09:46:16;-2.30;99.90
62904;DHT22;49000;50.698;13.322;2022-12-11T09:48:45;-2.30;99.90
62904;DHT22;49000;50.698;13.322;2022-12-11T09:51:29;-2.20;99.90
62904;DHT22;49000;50.698;13.322;2022-12-11T09:53:59;-2.20;99.90
62904;DHT22;49000;50.698;13.322;2022-12-11T09:59:19;-2.10;99.90
62904;DHT22;49000;50.698;13.322;2022-12-11T10:01:54;-2.00;99.90
62904;DHT22;49000;50.698;13.322;2022-12-11T10:04:44;-2.00;99.90
62904;DHT22;49000;50.698;13.322;2022-12-11T10:07:16;-1.90;99.90
62904;DHT22;49000;50.698;13.322;2022-12-11T10:15:55;-2.30;99.90
62904;DHT22;49000;50.698;13.322;2022-12-11T10:18:24;-2.20;99.90
62904;DHT22;49000;50.698;13.322;2022-12-11T10:20:51;-2.20;99.90
62904;DHT22;49000;50.698;13.322;2022-12-11T10:23:42;-2.10;99.90
62904;DHT22;49000;50.698;13.322;2022-12-11T10:26:28;-2.60;99.90
62904;DHT22;49000;50.698;13.322;2022-12-11T10:28:57;-1.90;99.90
62904;DHT22;49000;50.698;13.322;2022-12-11T10:31:31;-2.10;99.90
62904;DHT22;49000;50.698;13.322;2022-12-11T10:34:03;-2.00;99.90
62904;DHT22;49000;50.698;13.322;2022-12-11T10:36:38;-1.60;99.90
62904;DHT22;49000;50.698;13.322;2022-12-11T10:39:30;-1.60;99.90
62904;DHT22;49000;50.698;13.322;2022-12-11T10:41:56;-1.40;99.90
62904;DHT22;49000;50.698;13.322;2022-12-11T10:49:29;-1.10;99.90
62904;DHT22;49000;50.698;13.322;2022-12-11T10:51:56;-1.60;99.90
62904;DHT22;49000;50.698;13.322;2022-12-11T10:54:31;-1.10;99.90
62904;DHT22;49000;50.698;13.322;2022-12-11T10:56:59;-1.20;99.90
62904;DHT22;49000;50.698;13.322;2022-12-11T10:59:36;-1.10;99.90
62904;DHT22;49000;50.698;13.322;2022-12-11T11:02:04;-1.10;99.90
62904;DHT22;49000;50.698;13.322;2022-12-11T11:04:34;-1.00;99.90
62904;DHT22;49000;50.698;13.322;2022-12-11T11:07:14;-1.00;99.90
62904;DHT22;49000;50.698;13.322;2022-12-11T11:09:41;-1.40;99.90
62904;DHT22;49000;50.698;13.322;2022-12-11T11:12:24;-0.90;99.90
62904;DHT22;49000;50.698;13.322;2022-12-11T11:15:03;-1.10;99.90
62904;DHT22;49000;50.698;13.322;2022-12-11T11:17:30;-1.80;99.90
62904;DHT22;49000;50.698;13.322;2022-12-11T11:19:59;-1.70;99.90
62904;DHT22;49000;50.698;13.322;2022-12-11T11:22:30;-1.10;99.90
62904;DHT22;49000;50.698;13.322;2022-12-11T11:24:57;-1.90;99.90
62904;DHT22;49000;50.698;13.322;2022-12-11T11:27:46;-1.30;99.90
62904;DHT22;49000;50.698;13.322;2022-12-11T11:30:24;-1.40;99.90
62904;DHT22;49000;50.698;13.322;2022-12-11T11:32:53;-1.30;99.90
62904;DHT22;49000;50.698;13.322;2022-12-11T11:35:25;-1.50;99.90
62904;DHT22;49000;50.698;13.322;2022-12-11T11:38:17;-1.40;99.90
62904;DHT22;49000;50.698;13.322;2022-12-11T11:43:45;-1.90;99.90
62904;DHT22;49000;50.698;13.322;2022-12-11T11:46:44;-1.70;99.90
62904;DHT22;49000;50.698;13.322;2022-12-11T11:49:21;-1.90;99.90
62904;DHT22;49000;50.698;13.322;2022-12-11T11:52:38;-1.60;99.90
62904;DHT22;49000;50.698;13.322;2022-12-11T11:54:50;-1.90;99.90
62904;DHT22;49000;50.698;13.322;2022-12-11T11:57:26;-2.30;99.90
62904;DHT22;49000;50.698;13.322;2022-12-11T11:59:57;-2.30;99.90
62904;DHT22;49000;50.698;13.322;2022-12-11T12:02:33;-1.90;99.90
62904;DHT22;49000;50.698;13.322;2022-12-11T12:05:01;-1.80;99.90
62904;DHT22;49000;50.698;13.322;2022-12-11T12:07:50;-2.00;99.90
62904;DHT22;49000;50.698;13.322;2022-12-11T12:10:30;-1.70;99.90
62904;DHT22;49000;50.698;13.322;2022-12-11T12:13:22;-1.90;99.90
62904;DHT22;49000;50.698;13.322;2022-12-11T12:15:58;-2.00;99.90
62904;DHT22;49000;50.698;13.322;2022-12-11T12:21:36;-2.00;99.90
62904;DHT22;49000;50.698;13.322;2022-12-11T12:26:56;-2.10;99.90
62904;DHT22;49000;50.698;13.322;2022-12-11T12:29:45;-2.00;99.90
62904;DHT22;49000;50.698;13.322;2022-12-11T12:33:01;-2.10;99.90
62904;DHT22;49000;50.698;13.322;2022-12-11T12:35:47;-2.60;99.90
62904;DHT22;49000;50.698;13.322;2022-12-11T12:38:26;-2.70;99.90
62904;DHT22;49000;50.698;13.322;2022-12-11T12:43:59;-2.90;99.90
62904;DHT22;49000;50.698;13.322;2022-12-11T12:49:24;-2.30;99.90
62904;DHT22;49000;50.698;13.322;2022-12-11T12:51:52;-2.40;99.90
62904;DHT22;49000;50.698;13.322;2022-12-11T12:54:19;-2.30;99.90
62904;DHT22;49000;50.698;13.322;2022-12-11T12:56:46;-2.40;99.90
62904;DHT22;49000;50.698;13.322;2022-12-11T12:59:25;-2.20;99.90
62904;DHT22;49000;50.698;13.322;2022-12-11T13:01:54;-2.10;99.90
62904;DHT22;49000;50.698;13.322;2022-12-11T13:04:41;-2.30;99.90
62904;DHT22;49000;50.698;13.322;2022-12-11T13:07:29;-2.20;99.90
62904;DHT22;49000;50.698;13.322;2022-12-11T13:10:20;-2.30;99.90
62904;DHT22;49000;50.698;13.322;2022-12-11T13:12:47;-2.60;99.90
62904;DHT22;49000;50.698;13.322;2022-12-11T13:15:36;-2.70;99.90
62904;DHT22;49000;50.698;13.322;2022-12-11T13:18:31;-2.60;99.90
62904;DHT22;49000;50.698;13.322;2022-12-11T13:20:57;-2.70;99.90
62904;DHT22;49000;50.698;13.322;2022-12-11T13:23:29;-2.80;99.90
62904;DHT22;49000;50.698;13.322;2022-12-11T13:26:00;-2.90;99.90
62904;DHT22;49000;50.698;13.322;2022-12-11T13:28:33;-2.80;99.90
62904;DHT22;49000;50.698;13.322;2022-12-11T13:33:42;-3.00;99.90
62904;DHT22;49000;50.698;13.322;2022-12-11T13:38:36;-2.60;99.90
62904;DHT22;49000;50.698;13.322;2022-12-11T13:41:08;-2.90;99.90
62904;DHT22;49000;50.698;13.322;2022-12-11T13:43:35;-3.00;99.90
62904;DHT22;49000;50.698;13.322;2022-12-11T13:46:05;-3.30;99.90
62904;DHT22;49000;50.698;13.322;2022-12-11T13:48:54;-3.20;99.90
62904;DHT22;49000;50.698;13.322;2022-12-11T13:51:26;-3.30;99.90
62904;DHT22;49000;50.698;13.322;2022-12-11T13:54:12;-3.20;99.90
62904;DHT22;49000;50.698;13.322;2022-12-11T13:56:39;-3.60;99.90
62904;DHT22;49000;50.698;13.322;2022-12-11T13:59:15;-3.30;99.90
62904;DHT22;49000;50.698;13.322;2022-12-11T14:01:42;-3.20;99.90
62904;DHT22;49000;50.698;13.322;2022-12-11T14:04:11;-3.60;99.90
62904;DHT22;49000;50.698;13.322;2022-12-11T14:06:38;-3.10;99.90
62904;DHT22;49000;50.698;13.322;2022-12-11T14:09:05;-3.30;99.90
62904;DHT22;49000;50.698;13.322;2022-12-11T14:11:37;-3.40;99.90
62904;DHT22;49000;50.698;13.322;2022-12-11T14:14:14;-3.30;99.90
62904;DHT22;49000;50.698;13.322;2022-12-11T14:16:40;-3.40;99.90
62904;DHT22;49000;50.698;13.322;2022-12-11T14:19:07;-3.40;99.90
62904;DHT22;49000;50.698;13.322;2022-12-11T14:21:34;-3.30;99.90
62904;DHT22;49000;50.698;13.322;2022-12-11T14:24:02;-3.40;99.90
62904;DHT22;49000;50.698;13.322;2022-12-11T14:26:30;-3.30;99.90
62904;DHT22;49000;50.698;13.322;2022-12-11T14:28:55;-3.40;99.90
62904;DHT22;49000;50.698;13.322;2022-12-11T14:34:22;-3.60;99.90
62904;DHT22;49000;50.698;13.322;2022-12-11T14:36:49;-3.40;99.90
62904;DHT22;49000;50.698;13.322;2022-12-11T14:39:28;-3.50;99.90
62904;DHT22;49000;50.698;13.322;2022-12-11T14:42:15;-3.50;99.90
62904;DHT22;49000;50.698;13.322;2022-12-11T14:44:53;-3.50;99.90
62904;DHT22;49000;50.698;13.322;2022-12-11T14:47:24;-3.70;99.90
62904;DHT22;49000;50.698;13.322;2022-12-11T14:52:36;-3.80;99.90
62904;DHT22;49000;50.698;13.322;2022-12-11T14:55:11;-3.80;99.90
62904;DHT22;49000;50.698;13.322;2022-12-11T14:57:42;-3.90;99.90
62904;DHT22;49000;50.698;13.322;2022-12-11T15:00:20;-3.70;99.90
62904;DHT22;49000;50.698;13.322;2022-12-11T15:02:56;-3.70;99.90
62904;DHT22;49000;50.698;13.322;2022-12-11T15:05:22;-3.70;99.90
62904;DHT22;49000;50.698;13.322;2022-12-11T15:08:01;-3.40;99.90
62904;DHT22;49000;50.698;13.322;2022-12-11T15:10:39;-3.60;99.90
62904;DHT22;49000;50.698;13.322;2022-12-11T15:13:06;-3.50;99.90
62904;DHT22;49000;50.698;13.322;2022-12-11T15:15:42;-3.40;99.90
62904;DHT22;49000;50.698;13.322;2022-12-11T15:18:20;-3.10;99.90
62904;DHT22;49000;50.698;13.322;2022-12-11T15:20:50;-3.30;99.90
62904;DHT22;49000;50.698;13.322;2022-12-11T15:23:17;-3.40;99.90
62904;DHT22;49000;50.698;13.322;2022-12-11T15:25:52;-3.20;99.90
62904;DHT22;49000;50.698;13.322;2022-12-11T15:28:32;-3.30;99.90
62904;DHT22;49000;50.698;13.322;2022-12-11T15:31:00;-3.80;99.90
62904;DHT22;49000;50.698;13.322;2022-12-11T15:33:27;-3.20;99.90
62904;DHT22;49000;50.698;13.322;2022-12-11T15:38:36;-3.30;99.90
62904;DHT22;49000;50.698;13.322;2022-12-11T15:41:08;-3.50;99.90
62904;DHT22;49000;50.698;13.322;2022-12-11T15:43:36;-3.70;99.90
62904;DHT22;49000;50.698;13.322;2022-12-11T15:46:03;-3.60;99.90
62904;DHT22;49000;50.698;13.322;2022-12-11T15:48:28;-3.80;99.90
62904;DHT22;49000;50.698;13.322;2022-12-11T15:50:54;-3.60;99.90
62904;DHT22;49000;50.698;13.322;2022-12-11T15:53:20;-3.70;99.90
62904;DHT22;49000;50.698;13.322;2022-12-11T15:55:45;-3.60;99.90
62904;DHT22;49000;50.698;13.322;2022-12-11T15:58:14;-3.80;99.90
62904;DHT22;49000;50.698;13.322;2022-12-11T16:00:41;-4.00;99.90
62904;DHT22;49000;50.698;13.322;2022-12-11T16:03:10;-3.90;99.90
62904;DHT22;49000;50.698;13.322;2022-12-11T16:05:36;-4.50;99.90
62904;DHT22;49000;50.698;13.322;2022-12-11T16:08:02;-3.80;99.90
62904;DHT22;49000;50.698;13.322;2022-12-11T16:10:27;-3.90;99.90
62904;DHT22;49000;50.698;13.322;2022-12-11T16:12:53;-3.90;99.90
62904;DHT22;49000;50.698;13.322;2022-12-11T16:15:26;-4.40;99.90
62904;DHT22;49000;50.698;13.322;2022-12-11T16:18:03;-3.80;99.90
62904;DHT22;49000;50.698;13.322;2022-12-11T16:20:30;-3.70;99.90
62904;DHT22;49000;50.698;13.322;2022-12-11T16:22:56;-4.00;99.90
62904;DHT22;49000;50.698;13.322;2022-12-11T16:25:22;-3.60;99.90
62904;DHT22;49000;50.698;13.322;2022-12-11T16:27:48;-3.90;99.90
62904;DHT22;49000;50.698;13.322;2022-12-11T16:30:14;-4.30;99.90
62904;DHT22;49000;50.698;13.322;2022-12-11T16:32:39;-4.40;99.90
62904;DHT22;49000;50.698;13.322;2022-12-11T16:35:05;-3.80;99.90